Time,TemperatureF,DewpointF,PressureIn,WindDirection,WindDirectionDegrees,WindSpeedMPH,WindSpeedGustMPH,Humidity,HourlyPrecipIn,Conditions,Clouds,dailyrainin,SolarRadiationWatts/m^2,SoftwareType,DateUTC
2013-02-08 00:01:00,28.0,28.0,-100.00,North,351,10.0,21.0,100,0.00,,,0.00,0.000000,,2013-02-08 08:01:00,
2013-02-08 00:11:00,28.0,28.0,-100.00,North,351,10.0,21.0,100,0.00,,,0.00,0.000000,,2013-02-08 08:11:00,
2013-02-08 00:21:00,28.0,28.0,-100.00,North,351,10.0,21.0,100,0.00,,,0.00,0.000000,,2013-02-08 08:21:00,
2013-02-08 00:32:00,28.0,28.0,-100.00,North,351,10.0,21.0,100,0.00,,,0.00,0.000000,,2013-02-08 08:32:00,
2013-02-08 00:52:00,27.0,26.0,-100.00,North,350,5.0,22.0,97,0.00,,,0.00,0.000000,,2013-02-08 08:52:00,
2013-02-08 01:03:00,27.0,26.0,-100.00,North,350,5.0,22.0,97,0.00,,,0.00,0.000000,,2013-02-08 09:03:00,
2013-02-08 01:11:00,27.0,26.0,-100.00,North,350,5.0,22.0,97,0.00,,,0.00,0.000000,,2013-02-08 09:11:00,
2013-02-08 01:21:00,27.0,26.0,-100.00,North,350,5.0,22.0,97,0.00,,,0.00,0.000000,,2013-02-08 09:21:00,
2013-02-08 01:31:00,27.0,26.0,-100.00,North,350,5.0,22.0,97,0.00,,,0.00,0.000000,,2013-02-08 09:31:00,
2013-02-08 02:01:00,26.0,24.0,-100.00,SSW,194,5.0,18.0,92,0.00,,,0.00,0.000000,,2013-02-08 10:01:00,
2013-02-08 02:11:00,26.0,24.0,-100.00,SSW,194,5.0,18.0,92,0.00,,,0.00,0.000000,,2013-02-08 10:11:00,
2013-02-08 02:22:00,26.0,24.0,-100.00,SSW,194,5.0,18.0,92,0.00,,,0.00,0.000000,,2013-02-08 10:22:00,
2013-02-08 02:31:00,26.0,24.0,-100.00,SSW,194,5.0,18.0,92,0.00,,,0.00,0.000000,,2013-02-08 10:31:00,
2013-02-08 03:01:00,26.0,24.0,-100.00,SSW,198,9.0,21.0,93,0.00,,,0.00,0.000000,,2013-02-08 11:01:00,
2013-02-08 03:11:00,26.0,24.0,-100.00,SSW,198,9.0,21.0,93,0.00,,,0.00,0.000000,,2013-02-08 11:11:00,
2013-02-08 03:21:00,26.0,24.0,-100.00,SSW,198,9.0,21.0,93,0.00,,,0.00,0.000000,,2013-02-08 11:21:00,
2013-02-08 03:32:00,26.0,24.0,-100.00,SSW,198,9.0,21.0,93,0.00,,,0.00,0.000000,,2013-02-08 11:32:00,
2013-02-08 03:52:00,25.0,23.0,-100.00,SSW,193,8.0,25.0,93,0.00,,,0.00,0.000000,,2013-02-08 11:52:00,
2013-02-08 04:01:00,25.0,23.0,-100.00,SSW,193,8.0,25.0,93,0.00,,,0.00,0.000000,,2013-02-08 12:01:00,
2013-02-08 04:11:00,25.0,23.0,-100.00,SSW,193,8.0,25.0,93,0.00,,,0.00,0.000000,,2013-02-08 12:11:00,
2013-02-08 04:22:00,25.0,23.0,-100.00,SSW,193,8.0,25.0,93,0.00,,,0.00,0.000000,,2013-02-08 12:22:00,
2013-02-08 04:32:00,25.0,23.0,-100.00,SSW,193,8.0,25.0,93,0.00,,,0.00,0.000000,,2013-02-08 12:32:00,
2013-02-08 04:52:00,23.0,22.0,-100.00,South,191,8.0,22.0,95,0.00,,,-99.99,0.000000,,2013-02-08 12:52:00,
2013-02-08 05:01:00,23.0,22.0,-100.00,South,191,8.0,22.0,95,0.00,,,-99.99,0.000000,,2013-02-08 13:01:00,
2013-02-08 05:11:00,23.0,22.0,-100.00,South,191,8.0,22.0,95,0.00,,,-99.99,0.000000,,2013-02-08 13:11:00,
2013-02-08 05:21:00,23.0,22.0,-100.00,South,191,8.0,22.0,95,0.00,,,-99.99,0.000000,,2013-02-08 13:21:00,
2013-02-08 05:32:00,23.0,22.0,-100.00,South,191,8.0,22.0,95,0.00,,,-99.99,0.000000,,2013-02-08 13:32:00,
2013-02-08 06:02:00,21.0,19.0,-100.00,SSW,195,7.0,20.0,91,0.00,,,0.00,0.000000,,2013-02-08 14:02:00,
2013-02-08 06:11:00,21.0,19.0,-100.00,SSW,195,7.0,20.0,91,0.00,,,0.00,0.000000,,2013-02-08 14:11:00,
2013-02-08 06:21:00,21.0,19.0,-100.00,SSW,195,7.0,20.0,91,0.00,,,0.00,0.000000,,2013-02-08 14:21:00,
2013-02-08 06:32:00,21.0,19.0,-100.00,SSW,195,7.0,20.0,91,0.00,,,0.00,0.000000,,2013-02-08 14:32:00,
2013-02-08 06:52:00,21.0,19.0,-100.00,West,264,7.0,20.0,90,0.00,,,-99.99,0.000000,,2013-02-08 14:52:00,
2013-02-08 07:02:00,21.0,19.0,-100.00,West,264,7.0,20.0,90,0.00,,,-99.99,0.000000,,2013-02-08 15:02:00,
2013-02-08 07:11:00,21.0,19.0,-100.00,West,264,7.0,20.0,90,0.00,,,-99.99,0.000000,,2013-02-08 15:11:00,
2013-02-08 07:21:00,21.0,19.0,-100.00,West,264,7.0,20.0,90,0.00,,,-99.99,0.000000,,2013-02-08 15:21:00,
2013-02-08 07:31:00,21.0,19.0,-100.00,West,264,7.0,20.0,90,0.00,,,-99.99,0.000000,,2013-02-08 15:31:00,
2013-02-08 08:01:00,21.0,20.0,-100.00,SE,137,1.0,21.0,95,0.00,,,0.00,16.000000,,2013-02-08 16:01:00,
2013-02-08 08:11:00,21.0,20.0,-100.00,SE,137,1.0,21.0,95,0.00,,,0.00,16.000000,,2013-02-08 16:11:00,
2013-02-08 08:21:00,21.0,20.0,-100.00,SE,137,1.0,21.0,95,0.00,,,0.00,16.000000,,2013-02-08 16:21:00,
2013-02-08 08:32:00,21.0,20.0,-100.00,SE,137,1.0,21.0,95,0.00,,,0.00,16.000000,,2013-02-08 16:32:00,
2013-02-08 08:52:00,23.0,23.0,-100.00,SSW,192,5.0,13.0,98,0.00,,,0.00,15.000000,,2013-02-08 16:52:00,
2013-02-08 09:03:00,23.0,23.0,-100.00,SSW,192,5.0,13.0,98,0.00,,,0.00,15.000000,,2013-02-08 17:03:00,
2013-02-08 09:12:00,23.0,23.0,-100.00,SSW,192,5.0,13.0,98,0.00,,,0.00,15.000000,,2013-02-08 17:12:00,
2013-02-08 09:22:00,23.0,23.0,-100.00,SSW,192,5.0,13.0,98,0.00,,,0.00,15.000000,,2013-02-08 17:22:00,
2013-02-08 09:32:00,23.0,23.0,-100.00,SSW,192,5.0,13.0,98,0.00,,,0.00,15.000000,,2013-02-08 17:32:00,
2013-02-08 10:02:00,25.0,23.0,-100.00,SSW,193,8.0,17.0,93,0.00,,,0.00,92.000000,,2013-02-08 18:02:00,
2013-02-08 10:12:00,25.0,23.0,-100.00,SSW,193,8.0,17.0,93,0.00,,,0.00,92.000000,,2013-02-08 18:12:00,
2013-02-08 10:23:00,25.0,23.0,-100.00,SSW,193,8.0,17.0,93,0.00,,,0.00,92.000000,,2013-02-08 18:23:00,
2013-02-08 10:32:00,25.0,23.0,-100.00,SSW,193,8.0,17.0,93,0.00,,,0.00,92.000000,,2013-02-08 18:32:00,
2013-02-08 11:01:00,25.0,23.0,-100.00,SSW,198,1.0,17.0,92,0.00,,,0.00,198.000000,,2013-02-08 19:01:00,
2013-02-08 11:11:00,25.0,23.0,-100.00,SSW,198,1.0,17.0,92,0.00,,,0.00,198.000000,,2013-02-08 19:11:00,
2013-02-08 11:22:00,25.0,23.0,-100.00,SSW,198,1.0,17.0,92,0.00,,,0.00,198.000000,,2013-02-08 19:22:00,
2013-02-08 11:32:00,25.0,23.0,-100.00,SSW,198,1.0,17.0,92,0.00,,,0.00,198.000000,,2013-02-08 19:32:00,
2013-02-08 12:01:00,26.0,25.0,-100.00,SE,142,5.0,12.0,96,0.00,,,0.00,86.000000,,2013-02-08 20:01:00,
2013-02-08 12:11:00,26.0,25.0,-100.00,SE,142,5.0,12.0,96,0.00,,,0.00,86.000000,,2013-02-08 20:11:00,
2013-02-08 12:21:00,26.0,25.0,-100.00,SE,142,5.0,12.0,96,0.00,,,0.00,86.000000,,2013-02-08 20:21:00,
2013-02-08 12:31:00,26.0,25.0,-100.00,SE,142,5.0,12.0,96,0.00,,,0.00,86.000000,,2013-02-08 20:31:00,
2013-02-08 13:01:00,23.0,22.0,-100.00,SSW,194,4.0,12.0,96,0.00,,,0.00,66.000000,,2013-02-08 21:01:00,
2013-02-08 13:11:00,23.0,22.0,-100.00,SSW,194,4.0,12.0,96,0.00,,,0.00,66.000000,,2013-02-08 21:11:00,
2013-02-08 13:21:00,23.0,22.0,-100.00,SSW,194,4.0,12.0,96,0.00,,,0.00,66.000000,,2013-02-08 21:21:00,
2013-02-08 13:32:00,23.0,22.0,-100.00,SSW,194,4.0,12.0,96,0.00,,,0.00,66.000000,,2013-02-08 21:32:00,
2013-02-08 13:52:00,24.0,23.0,-100.00,SSW,198,5.0,15.0,94,0.00,,,0.00,89.000000,,2013-02-08 21:52:00,
2013-02-08 14:01:00,24.0,23.0,-100.00,SSW,198,5.0,15.0,94,0.00,,,0.00,89.000000,,2013-02-08 22:01:00,
2013-02-08 14:11:00,24.0,23.0,-100.00,SSW,198,5.0,15.0,94,0.00,,,0.00,89.000000,,2013-02-08 22:11:00,
2013-02-08 14:21:00,24.0,23.0,-100.00,SSW,198,5.0,15.0,94,0.00,,,0.00,89.000000,,2013-02-08 22:21:00,
2013-02-08 14:31:00,24.0,23.0,-100.00,SSW,198,5.0,15.0,94,0.00,,,0.00,89.000000,,2013-02-08 22:31:00,
2013-02-08 14:52:00,25.0,24.0,-100.00,NE,48,2.0,12.0,94,0.00,,,0.00,93.000000,,2013-02-08 22:52:00,
2013-02-08 15:01:00,25.0,24.0,-100.00,NE,48,2.0,12.0,94,0.00,,,0.00,93.000000,,2013-02-08 23:01:00,
2013-02-08 15:11:00,25.0,24.0,-100.00,NE,48,2.0,12.0,94,0.00,,,0.00,93.000000,,2013-02-08 23:11:00,
2013-02-08 15:21:00,25.0,24.0,-100.00,NE,48,2.0,12.0,94,0.00,,,0.00,93.000000,,2013-02-08 23:21:00,
2013-02-08 15:31:00,25.0,24.0,-100.00,NE,48,2.0,12.0,94,0.00,,,0.00,93.000000,,2013-02-08 23:31:00,
2013-02-08 16:02:00,25.0,24.0,-100.00,South,188,3.0,10.0,95,0.00,,,0.00,43.000000,,2013-02-09 00:02:00,
2013-02-08 16:11:00,25.0,24.0,-100.00,South,188,3.0,10.0,95,0.00,,,0.00,43.000000,,2013-02-09 00:11:00,
2013-02-08 16:21:00,25.0,24.0,-100.00,South,188,3.0,10.0,95,0.00,,,0.00,43.000000,,2013-02-09 00:21:00,
2013-02-08 16:31:00,25.0,24.0,-100.00,South,188,3.0,10.0,95,0.00,,,0.00,43.000000,,2013-02-09 00:31:00,
2013-02-08 17:01:00,22.0,21.0,-100.00,SSW,198,2.0,12.0,97,0.00,,,0.00,19.000000,,2013-02-09 01:01:00,
2013-02-08 17:11:00,22.0,21.0,-100.00,SSW,198,2.0,12.0,97,0.00,,,0.00,19.000000,,2013-02-09 01:11:00,
2013-02-08 17:21:00,22.0,21.0,-100.00,SSW,198,2.0,12.0,97,0.00,,,0.00,19.000000,,2013-02-09 01:21:00,
2013-02-08 17:31:00,22.0,21.0,-100.00,SSW,198,2.0,12.0,97,0.00,,,0.00,19.000000,,2013-02-09 01:31:00,
2013-02-08 18:01:00,21.0,20.0,-100.00,South,184,3.0,9.0,96,0.00,,,0.00,0.000000,,2013-02-09 02:01:00,
2013-02-08 18:11:00,21.0,20.0,-100.00,South,184,3.0,9.0,96,0.00,,,0.00,0.000000,,2013-02-09 02:11:00,
2013-02-08 18:21:00,21.0,20.0,-100.00,South,184,3.0,9.0,96,0.00,,,0.00,0.000000,,2013-02-09 02:21:00,
2013-02-08 18:31:00,21.0,20.0,-100.00,South,184,3.0,9.0,96,0.00,,,0.00,0.000000,,2013-02-09 02:31:00,
2013-02-08 18:52:00,19.0,18.0,-100.00,SSE,155,4.0,13.0,96,0.00,,,0.00,0.000000,,2013-02-09 02:52:00,
2013-02-08 19:01:00,19.0,18.0,-100.00,SSE,155,4.0,13.0,96,0.00,,,0.00,0.000000,,2013-02-09 03:01:00,
2013-02-08 19:11:00,19.0,18.0,-100.00,SSE,155,4.0,13.0,96,0.00,,,0.00,0.000000,,2013-02-09 03:11:00,
2013-02-08 19:21:00,19.0,18.0,-100.00,SSE,155,4.0,13.0,96,0.00,,,0.00,0.000000,,2013-02-09 03:21:00,
2013-02-08 19:31:00,19.0,18.0,-100.00,SSE,155,4.0,13.0,96,0.00,,,0.00,0.000000,,2013-02-09 03:31:00,
2013-02-08 20:02:00,20.0,19.0,-100.00,East,83,0.0,10.0,97,0.00,,,0.00,0.000000,,2013-02-09 04:02:00,
2013-02-08 20:11:00,20.0,19.0,-100.00,East,83,0.0,10.0,97,0.00,,,0.00,0.000000,,2013-02-09 04:11:00,
2013-02-08 20:22:00,20.0,19.0,-100.00,East,83,0.0,10.0,97,0.00,,,0.00,0.000000,,2013-02-09 04:22:00,
2013-02-08 20:31:00,20.0,19.0,-100.00,East,83,0.0,10.0,97,0.00,,,0.00,0.000000,,2013-02-09 04:31:00,
2013-02-08 21:02:00,20.0,19.0,-100.00,NNW,342,0.0,6.0,97,0.00,,,0.00,0.000000,,2013-02-09 05:02:00,
2013-02-08 21:12:00,20.0,19.0,-100.00,NNW,342,0.0,6.0,97,0.00,,,0.00,0.000000,,2013-02-09 05:12:00,
2013-02-08 21:22:00,20.0,19.0,-100.00,NNW,342,0.0,6.0,97,0.00,,,0.00,0.000000,,2013-02-09 05:22:00,
2013-02-08 21:31:00,20.0,19.0,-100.00,NNW,342,0.0,6.0,97,0.00,,,0.00,0.000000,,2013-02-09 05:31:00,
2013-02-08 22:01:00,19.0,18.0,-100.00,NNW,333,0.0,0.0,96,0.00,,,0.00,0.000000,,2013-02-09 06:01:00,
2013-02-08 22:11:00,19.0,18.0,-100.00,NNW,333,0.0,0.0,96,0.00,,,0.00,0.000000,,2013-02-09 06:11:00,
2013-02-08 22:21:00,19.0,18.0,-100.00,NNW,333,0.0,0.0,96,0.00,,,0.00,0.000000,,2013-02-09 06:21:00,
2013-02-08 22:31:00,19.0,18.0,-100.00,NNW,333,0.0,0.0,96,0.00,,,0.00,0.000000,,2013-02-09 06:31:00,
2013-02-08 23:01:00,20.0,19.0,-100.00,SSW,199,1.0,4.0,97,0.00,,,0.00,0.000000,,2013-02-09 07:01:00,
2013-02-08 23:11:00,20.0,19.0,-100.00,SSW,199,1.0,4.0,97,0.00,,,0.00,0.000000,,2013-02-09 07:11:00,
2013-02-08 23:21:00,20.0,19.0,-100.00,SSW,199,1.0,4.0,97,0.00,,,0.00,0.000000,,2013-02-09 07:21:00,
2013-02-08 23:31:00,20.0,19.0,-100.00,SSW,199,1.0,4.0,97,0.00,,,0.00,0.000000,,2013-02-09 07:31:00,